Time;durP1;ratioP1;P1;durP2;ratioP2;P2;SDS_P1;SDS_P2;PMS_P1;PMS_P2;Temp;Humidity;BMP_temperature;BMP_pressure;BME280_temperature;BME280_humidity;BME280_pressure;Samples;Min_cycle;Max_cycle;Signal;HPM_P1;HPM_P2
2022/10/19 00:01:05;;;;;;;;;;;256.10;2252.80;;;;;;5093806;28;19912;-58
2022/10/19 00:03:31;;;;;;;;;;;256.10;2252.80;;;;;;5093652;28;20350;-58
2022/10/19 00:05:57;;;;;;;;;;;256.00;2252.80;;;;;;5093976;28;19951;-57
2022/10/19 00:08:22;;;;;;;;;;;256.00;2252.80;;;;;;5093704;28;20353;-57
2022/10/19 00:10:48;;;;;;;;;;;256.00;2252.80;;;;;;5093904;28;19943;-57
2022/10/19 00:13:13;;;;;;;;;;;231.10;2252.80;;;;;;5093569;28;19911;-57
2022/10/19 00:15:39;;;;;;;;;;;256.00;2252.80;;;;;;5093717;28;19918;-58
2022/10/19 00:18:05;;;;;;;;;;;256.00;2252.80;;;;;;5093900;28;19923;-58
2022/10/19 00:20:31;;;;;;;;;;;231.30;2252.80;;;;;;5093481;28;19908;-58
2022/10/19 00:22:56;;;;;;;;;;;256.00;2252.80;;;;;;5093692;28;19966;-58
2022/10/19 00:25:22;;;;;;;;;;;256.00;2252.80;;;;;;5093229;28;19920;-57
2022/10/19 00:27:48;;;;;;;;;;;256.00;2252.80;;;;;;5093651;28;19986;-57
2022/10/19 00:30:13;;;;;;;;;;;256.00;2252.80;;;;;;5093229;28;19908;-58
2022/10/19 00:32:39;;;;;;;;;;;256.10;2252.80;;;;;;5093645;28;19912;-57
2022/10/19 00:35:04;;;;;;;;;;;256.10;2252.80;;;;;;5093221;28;19989;-58
2022/10/19 00:37:30;;;;;;;;;;;256.00;2252.80;;;;;;5092674;28;20412;-58
2022/10/19 00:39:55;;;;;;;;;;;256.00;2252.80;;;;;;5092924;28;20013;-57
2022/10/19 00:42:21;;;;;;;;;;;256.00;2252.80;;;;;;5093011;28;19908;-57
2022/10/19 00:44:47;;;;;;;;;;;256.00;2252.80;;;;;;5093185;28;19912;-57
2022/10/19 00:47:12;;;;;;;;;;;256.00;2252.80;;;;;;5093175;28;20274;-57
2022/10/19 00:49:41;;;;;;;;;;;256.00;2252.80;;;;;;5093364;28;19908;-57
2022/10/19 00:52:09;;;;;;;;;;;256.00;2252.80;;;;;;5093164;28;19908;-56
2022/10/19 00:54:36;;;;;;;;;;;256.00;2252.80;;;;;;5093083;28;19958;-57
2022/10/19 00:57:02;;;;;;;;;;;256.00;2252.80;;;;;;5092758;28;19971;-58
2022/10/19 00:59:30;;;;;;;;;;;256.00;2252.80;;;;;;5092824;28;20243;-58
2022/10/19 01:01:56;;;;;;;;;;;256.00;2252.80;;;;;;5092990;28;19908;-57
2022/10/19 01:04:23;;;;;;;;;;;256.20;2252.80;;;;;;5092478;28;19919;-58
2022/10/19 01:06:49;;;;;;;;;;;256.10;2252.80;;;;;;5092613;28;19974;-58
2022/10/19 01:09:15;;;;;;;;;;;256.10;2252.80;;;;;;5092746;28;20370;-58
2022/10/19 01:11:54;;;;;;;;;;;256.10;2252.80;;;;;;5092547;28;20354;-58
2022/10/19 01:14:19;;;;;;;;;;;256.10;2252.80;;;;;;5092538;28;19908;-59
2022/10/19 01:16:50;;;;;;;;;;;256.10;2252.80;;;;;;5092676;28;19908;-58
2022/10/19 01:19:34;;;;;;;;;;;256.00;2252.80;;;;;;5092679;28;19991;-57
2022/10/19 01:22:09;;;;;;;;;;;256.00;2252.80;;;;;;5092322;28;20380;-58
2022/10/19 01:24:41;;;;;;;;;;;256.00;2252.80;;;;;;5092321;28;19908;-57
2022/10/19 01:27:25;;;;;;;;;;;231.30;2252.80;;;;;;5092674;28;19908;-58
2022/10/19 01:30:05;;;;;;;;;;;231.30;2252.80;;;;;;5092401;28;19916;-57
2022/10/19 01:32:41;;;;;;;;;;;231.30;2252.80;;;;;;5092277;28;19958;-58
2022/10/19 01:35:10;;;;;;;;;;;231.30;2252.80;;;;;;5091988;28;20500;-58
2022/10/19 01:37:38;;;;;;;;;;;231.20;2252.80;;;;;;5092178;28;20360;-58
2022/10/19 01:40:22;;;;;;;;;;;231.20;2252.80;;;;;;5091933;28;20326;-56
2022/10/19 01:42:54;;;;;;;;;;;231.20;2252.80;;;;;;5092277;28;20007;-57
2022/10/19 01:45:25;;;;;;;;;;;231.20;2252.80;;;;;;5091830;28;20011;-57
2022/10/19 01:47:56;;;;;;;;;;;231.20;2252.80;;;;;;5091834;28;19915;-58
2022/10/19 01:50:51;;;;;;;;;;;231.20;2252.80;;;;;;5091720;28;20362;-58
2022/10/19 01:53:18;;;;;;;;;;;231.10;2252.80;;;;;;5049690;28;20389;-58
2022/10/19 01:55:46;;;;;;;;;;;231.20;2252.80;;;;;;5049488;28;19909;-57
2022/10/19 01:58:15;;;;;;;;;;;231.30;2252.80;;;;;;5049175;28;19909;-58
2022/10/19 02:00:42;;;;;;;;;;;231.30;2252.80;;;;;;5049172;28;19908;-58
2022/10/19 02:03:09;;;;;;;;;;;256.00;2252.80;;;;;;5049222;28;20414;-57
2022/10/19 02:05:35;;;;;;;;;;;256.00;2252.80;;;;;;5049223;28;19920;-58
2022/10/19 02:08:03;;;;;;;;;;;231.30;2252.80;;;;;;5048846;28;19909;-58
2022/10/19 02:10:31;;;;;;;;;;;256.00;2252.80;;;;;;5048824;28;19928;-58
2022/10/19 02:12:57;;;;;;;;;;;256.10;2252.80;;;;;;5049081;28;19978;-57
2022/10/19 02:15:24;;;;;;;;;;;256.20;2252.80;;;;;;5048742;28;19963;-57
2022/10/19 02:17:51;;;;;;;;;;;256.30;2252.80;;;;;;5048715;28;19911;-58
2022/10/19 02:20:17;;;;;;;;;;;256.40;2252.80;;;;;;5049057;28;20421;-57
2022/10/19 02:22:43;;;;;;;;;;;256.40;2252.80;;;;;;5048674;28;19913;-57
2022/10/19 02:25:09;;;;;;;;;;;256.40;2252.80;;;;;;5048388;28;19920;-58
2022/10/19 02:27:35;;;;;;;;;;;256.30;2252.80;;;;;;5048913;28;19909;-57
2022/10/19 02:30:01;;;;;;;;;;;256.20;2252.80;;;;;;5075996;28;19909;-57
2022/10/19 02:32:27;;;;;;;;;;;256.30;2252.80;;;;;;5091135;28;19908;-57
2022/10/19 02:34:53;;;;;;;;;;;256.30;2252.80;;;;;;5090771;28;19916;-58
2022/10/19 02:37:18;;;;;;;;;;;256.40;2252.80;;;;;;5090936;28;19916;-58
2022/10/19 02:39:44;;;;;;;;;;;256.40;2252.80;;;;;;5091031;28;19923;-57
2022/10/19 02:42:18;;;;;;;;;;;256.50;2252.80;;;;;;5090716;28;19912;-58
2022/10/19 02:44:47;;;;;;;;;;;256.40;2252.80;;;;;;5091279;28;19908;-58
2022/10/19 02:47:15;;;;;;;;;;;256.30;2252.80;;;;;;5090958;28;19924;-58
2022/10/19 02:49:42;;;;;;;;;;;256.30;2252.80;;;;;;5090859;28;19969;-58
2022/10/19 02:52:09;;;;;;;;;;;256.20;2252.80;;;;;;5090901;28;19908;-58
2022/10/19 02:54:35;;;;;;;;;;;256.20;2252.80;;;;;;5090820;28;20005;-57
2022/10/19 02:57:01;;;;;;;;;;;256.20;2252.80;;;;;;5090556;28;19953;-57
2022/10/19 02:59:27;;;;;;;;;;;256.20;2252.80;;;;;;5090608;28;20427;-57
2022/10/19 03:01:53;;;;;;;;;;;256.20;2252.80;;;;;;5090234;28;20385;-57
2022/10/19 03:04:18;;;;;;;;;;;256.20;2252.80;;;;;;5090680;28;19908;-57
2022/10/19 03:06:44;;;;;;;;;;;256.20;2252.80;;;;;;5090726;28;20031;-58
2022/10/19 03:09:10;;;;;;;;;;;256.10;2252.80;;;;;;5090317;28;19920;-57
2022/10/19 03:11:35;;;;;;;;;;;256.00;2252.80;;;;;;5090479;28;19912;-58
2022/10/19 03:14:01;;;;;;;;;;;231.30;2252.80;;;;;;5090309;28;19908;-58
2022/10/19 03:16:26;;;;;;;;;;;231.30;2252.80;;;;;;5090592;28;19908;-57
2022/10/19 03:18:52;;;;;;;;;;;231.20;2252.80;;;;;;5090371;28;19908;-58
2022/10/19 03:21:18;;;;;;;;;;;231.20;2252.80;;;;;;5090903;28;19915;-58
2022/10/19 03:23:44;;;;;;;;;;;231.20;2252.80;;;;;;5090493;28;19908;-58
2022/10/19 03:26:12;;;;;;;;;;;231.10;2252.80;;;;;;5090264;28;19963;-57
2022/10/19 03:28:37;;;;;;;;;;;231.10;2252.80;;;;;;5090476;28;19912;-57
2022/10/19 03:31:03;;;;;;;;;;;256.20;2252.80;;;;;;5090466;28;19916;-57
2022/10/19 03:33:28;;;;;;;;;;;231.10;2252.80;;;;;;5090039;28;19957;-58
2022/10/19 03:36:13;;;;;;;;;;;231.10;2252.80;;;;;;5090566;28;19944;-58
2022/10/19 03:38:38;;;;;;;;;;;231.00;2252.80;;;;;;5090173;28;20032;-59
2022/10/19 03:41:04;;;;;;;;;;;230.90;2252.80;;;;;;5090300;28;20008;-59
2022/10/19 03:43:30;;;;;;;;;;;231.00;2252.80;;;;;;5090162;28;19916;-58
2022/10/19 03:45:55;;;;;;;;;;;231.00;2252.80;;;;;;5090123;28;19918;-58
2022/10/19 03:48:21;;;;;;;;;;;231.00;2252.80;;;;;;5090024;28;19908;-58
2022/10/19 03:50:47;;;;;;;;;;;230.90;2252.80;;;;;;5090487;28;19916;-58
2022/10/19 03:53:13;;;;;;;;;;;230.90;2252.80;;;;;;5090102;28;19993;-58
2022/10/19 03:55:38;;;;;;;;;;;230.90;2252.80;;;;;;5090061;28;19949;-58
2022/10/19 03:58:04;;;;;;;;;;;230.80;2252.80;;;;;;5090110;28;19909;-58
2022/10/19 04:00:29;;;;;;;;;;;230.90;2252.80;;;;;;5090109;28;20316;-58
2022/10/19 04:02:55;;;;;;;;;;;230.80;2252.80;;;;;;5090225;28;20366;-59
2022/10/19 04:05:20;;;;;;;;;;;230.90;2252.80;;;;;;5089831;28;20286;-58
2022/10/19 04:07:46;;;;;;;;;;;230.90;2252.80;;;;;;5090269;28;20320;-59
2022/10/19 04:10:11;;;;;;;;;;;230.90;2252.80;;;;;;5089705;28;20370;-59
2022/10/19 04:12:37;;;;;;;;;;;230.90;2252.80;;;;;;5089785;28;20263;-58
2022/10/19 04:15:03;;;;;;;;;;;230.90;2252.80;;;;;;5093505;28;19912;-57
2022/10/19 04:17:28;;;;;;;;;;;230.90;2252.80;;;;;;5093892;28;19908;-58
2022/10/19 04:19:54;;;;;;;;;;;230.90;2252.80;;;;;;5093845;28;20407;-58
2022/10/19 04:22:19;;;;;;;;;;;230.90;2252.80;;;;;;5093493;28;20416;-59
2022/10/19 04:24:45;;;;;;;;;;;230.90;2252.80;;;;;;5093524;28;20319;-58
2022/10/19 04:27:10;;;;;;;;;;;230.80;2252.80;;;;;;5093404;28;19966;-58
2022/10/19 04:29:36;;;;;;;;;;;230.80;2252.80;;;;;;5093449;28;19908;-58
2022/10/19 04:32:02;;;;;;;;;;;230.80;2252.80;;;;;;5093463;28;19912;-58
2022/10/19 04:34:27;;;;;;;;;;;230.80;2252.80;;;;;;5093320;28;19912;-58
2022/10/19 04:36:53;;;;;;;;;;;230.80;2252.80;;;;;;5093232;28;19916;-57
2022/10/19 04:39:18;;;;;;;;;;;230.80;2252.80;;;;;;5093491;28;20370;-58
2022/10/19 04:41:44;;;;;;;;;;;230.80;2252.80;;;;;;5093249;28;19978;-58
2022/10/19 04:44:09;;;;;;;;;;;230.80;2252.80;;;;;;5092952;28;19908;-58
2022/10/19 04:46:36;;;;;;;;;;;230.80;2252.80;;;;;;5093138;28;19920;-58
2022/10/19 04:49:03;;;;;;;;;;;230.90;2252.80;;;;;;5092970;28;19938;-58
2022/10/19 04:51:28;;;;;;;;;;;231.00;2252.80;;;;;;5093231;28;19935;-57
2022/10/19 04:53:57;;;;;;;;;;;231.00;2252.80;;;;;;5093102;28;20358;-58
2022/10/19 04:56:25;;;;;;;;;;;230.90;2252.80;;;;;;5092769;28;19908;-58
2022/10/19 04:58:53;;;;;;;;;;;230.90;2252.80;;;;;;5092642;28;20324;-58
2022/10/19 05:01:19;;;;;;;;;;;230.90;2252.80;;;;;;5092966;28;19908;-57
2022/10/19 05:03:45;;;;;;;;;;;230.90;2252.80;;;;;;5092885;28;19919;-58
2022/10/19 05:06:11;;;;;;;;;;;230.90;2252.80;;;;;;5092702;28;20290;-57
2022/10/19 05:08:37;;;;;;;;;;;231.00;2252.80;;;;;;5092625;28;19964;-58
2022/10/19 05:11:04;;;;;;;;;;;231.10;2252.80;;;;;;5092552;28;20010;-58
2022/10/19 05:13:31;;;;;;;;;;;231.20;2252.80;;;;;;5092381;28;19908;-59
2022/10/19 05:16:00;;;;;;;;;;;231.20;2252.80;;;;;;5092821;28;20001;-58
2022/10/19 05:18:26;;;;;;;;;;;256.00;2252.80;;;;;;5092802;28;20315;-58
2022/10/19 05:20:59;;;;;;;;;;;256.10;2252.80;;;;;;5092401;28;19908;-58
2022/10/19 05:23:24;;;;;;;;;;;256.20;2252.80;;;;;;5092516;28;20353;-58
2022/10/19 05:25:57;;;;;;;;;;;256.30;2252.80;;;;;;5091775;28;20010;-58
2022/10/19 05:28:23;;;;;;;;;;;256.40;2252.80;;;;;;5092153;28;20432;-58
2022/10/19 05:30:48;;;;;;;;;;;256.40;2252.80;;;;;;5092385;28;19936;-57
2022/10/19 05:33:14;;;;;;;;;;;256.40;2252.80;;;;;;5092363;28;20385;-59
2022/10/19 05:35:39;;;;;;;;;;;256.50;2252.80;;;;;;5092056;28;19920;-58
2022/10/19 05:38:05;;;;;;;;;;;256.60;2252.80;;;;;;5092094;28;20015;-58
2022/10/19 05:40:30;;;;;;;;;;;256.70;2252.80;;;;;;5091895;28;19915;-58
2022/10/19 05:42:56;;;;;;;;;;;256.90;2252.80;;;;;;5092009;28;19908;-58
2022/10/19 05:45:21;;;;;;;;;;;256.90;2252.80;;;;;;5091838;28;19916;-58
2022/10/19 05:47:47;;;;;;;;;;;281.60;2278.40;;;;;;5092326;28;20042;-58
2022/10/19 05:50:12;;;;;;;;;;;281.70;2278.40;;;;;;5091629;28;19977;-58
2022/10/19 05:52:38;;;;;;;;;;;281.70;2278.40;;;;;;5091886;28;19977;-58
2022/10/19 05:55:04;;;;;;;;;;;281.80;2278.40;;;;;;5091688;28;19908;-57
2022/10/19 05:57:30;;;;;;;;;;;281.90;2278.40;;;;;;5091597;28;19915;-58
2022/10/19 05:59:57;;;;;;;;;;;281.90;2278.40;;;;;;5091712;28;19915;-58
2022/10/19 06:02:23;;;;;;;;;;;281.90;2278.40;;;;;;5091644;28;19909;-59
2022/10/19 06:04:48;;;;;;;;;;;281.90;2278.40;;;;;;5091699;28;20449;-58
2022/10/19 06:07:14;;;;;;;;;;;282.10;2278.40;;;;;;5091661;28;19923;-58
2022/10/19 06:09:39;;;;;;;;;;;282.10;2278.40;;;;;;5091239;28;19924;-58
2022/10/19 06:12:05;;;;;;;;;;;282.20;2278.40;;;;;;5091484;28;19955;-60
2022/10/19 06:14:30;;;;;;;;;;;282.30;2278.40;;;;;;5091198;28;19908;-59
2022/10/19 06:16:56;;;;;;;;;;;282.50;2278.40;;;;;;5091413;28;19993;-58
2022/10/19 06:19:21;;;;;;;;;;;282.50;2278.40;;;;;;5091360;28;19934;-58
2022/10/19 06:21:47;;;;;;;;;;;307.20;2304.00;;;;;;5091461;28;19914;-58
2022/10/19 06:24:13;;;;;;;;;;;307.50;2304.00;;;;;;5091115;28;20273;-58
2022/10/19 06:26:38;;;;;;;;;;;307.60;2304.00;;;;;;5091048;28;19916;-58
2022/10/19 06:29:04;;;;;;;;;;;307.70;2304.00;;;;;;5091205;28;19943;-58
2022/10/19 06:31:31;;;;;;;;;;;307.70;2304.00;;;;;;5089507;28;19912;-58
2022/10/19 06:33:56;;;;;;;;;;;307.80;2304.00;;;;;;5089472;28;19912;-59
2022/10/19 06:36:23;;;;;;;;;;;307.80;2304.00;;;;;;5089407;28;19919;-61
2022/10/19 06:38:49;;;;;;;;;;;307.80;2304.00;;;;;;5090991;28;19908;-58
2022/10/19 06:41:14;;;;;;;;;;;307.90;2304.00;;;;;;5090962;28;19915;-59
2022/10/19 06:43:42;;;;;;;;;;;308.00;2304.00;;;;;;5090792;28;20256;-58
2022/10/19 06:46:13;;;;;;;;;;;308.00;2304.00;;;;;;5090794;28;19916;-58
2022/10/19 06:48:40;;;;;;;;;;;308.10;2304.00;;;;;;5090716;28;20684;-59
2022/10/19 06:51:06;;;;;;;;;;;332.80;2329.60;;;;;;5090916;28;19998;-58
2022/10/19 06:53:33;;;;;;;;;;;332.80;2329.60;;;;;;5090596;28;19915;-59
2022/10/19 06:55:59;;;;;;;;;;;333.00;2329.60;;;;;;5090663;28;19908;-58
2022/10/19 06:58:25;;;;;;;;;;;333.10;2329.60;;;;;;5090714;28;19915;-58
2022/10/19 07:00:58;;;;;;;;;;;333.20;2329.60;;;;;;5090484;28;19908;-58
2022/10/19 07:03:24;;;;;;;;;;;333.40;2329.60;;;;;;5090424;28;19923;-58
2022/10/19 07:05:57;;;;;;;;;;;333.60;2329.60;;;;;;5090493;28;19927;-59
2022/10/19 07:08:23;;;;;;;;;;;358.50;2329.60;;;;;;5090271;28;19965;-58
2022/10/19 07:10:52;;;;;;;;;;;384.40;2329.60;;;;;;5090795;28;20822;-60
2022/10/19 07:13:19;;;;;;;;;;;460.80;2380.80;;;;;;5088758;28;20145;-59
2022/10/19 07:15:45;;;;;;;;;;;487.00;2329.60;;;;;;5090656;28;19910;-60
2022/10/19 07:18:11;;;;;;;;;;;538.00;2124.80;;;;;;5090455;28;20010;-59
2022/10/19 07:20:36;;;;;;;;;;;563.70;1945.60;;;;;;5090627;28;20358;-61
2022/10/19 07:23:02;;;;;;;;;;;589.30;1868.80;;;;;;5090215;28;19947;-59
2022/10/19 07:25:29;;;;;;;;;;;615.20;1715.20;;;;;;5090339;28;19916;-61
2022/10/19 07:27:55;;;;;;;;;;;640.50;1638.40;;;;;;5090500;28;19919;-59
2022/10/19 07:30:20;;;;;;;;;;;666.00;1612.80;;;;;;5090152;28;19908;-60
2022/10/19 07:32:46;;;;;;;;;;;666.30;1587.20;;;;;;5090435;28;19961;-59
2022/10/19 07:35:11;;;;;;;;;;;691.80;1536.00;;;;;;5090187;28;19999;-60
2022/10/19 07:37:37;;;;;;;;;;;717.50;1433.60;;;;;;5090532;28;20037;-59
2022/10/19 07:40:03;;;;;;;;;;;717.30;1433.60;;;;;;5090112;28;19966;-59
2022/10/19 07:42:31;;;;;;;;;;;742.60;1433.60;;;;;;5090251;28;19908;-59
2022/10/19 07:44:56;;;;;;;;;;;742.90;1382.40;;;;;;5090093;28;20400;-60
2022/10/19 07:47:22;;;;;;;;;;;768.00;1356.80;;;;;;5091213;28;19908;-59
2022/10/19 07:49:47;;;;;;;;;;;768.40;1331.20;;;;;;5092079;28;19908;-60
2022/10/19 07:52:13;;;;;;;;;;;768.80;1331.20;;;;;;5092390;28;19994;-59
2022/10/19 07:54:39;;;;;;;;;;;794.20;1305.60;;;;;;5092706;28;20031;-59
2022/10/19 07:57:04;;;;;;;;;;;794.30;1280.00;;;;;;5092475;28;19912;-60
2022/10/19 07:59:30;;;;;;;;;;;819.40;1305.60;;;;;;5092318;28;20352;-60
2022/10/19 08:01:56;;;;;;;;;;;794.20;1331.20;;;;;;5091978;28;19930;-59
2022/10/19 08:04:22;;;;;;;;;;;819.60;1280.00;;;;;;5092060;28;19926;-60
2022/10/19 08:06:48;;;;;;;;;;;844.90;1254.40;;;;;;5092492;28;20346;-60
2022/10/19 08:09:14;;;;;;;;;;;820.10;1228.80;;;;;;5092101;28;19928;-60
2022/10/19 08:11:39;;;;;;;;;;;845.40;1228.80;;;;;;5092058;28;19918;-60
2022/10/19 08:14:05;;;;;;;;;;;845.60;1228.80;;;;;;5092255;28;19961;-60
2022/10/19 08:16:32;;;;;;;;;;;845.10;1203.20;;;;;;5091419;28;19912;-60
2022/10/19 08:18:59;;;;;;;;;;;845.10;1203.20;;;;;;5092095;28;19912;-59
2022/10/19 08:21:26;;;;;;;;;;;844.90;1228.80;;;;;;5092216;28;19912;-59
2022/10/19 08:23:51;;;;;;;;;;;819.60;1228.80;;;;;;5091818;28;20617;-60
2022/10/19 08:26:17;;;;;;;;;;;819.80;1203.20;;;;;;5091950;28;19923;-60
2022/10/19 08:28:42;;;;;;;;;;;819.70;1203.20;;;;;;5091279;28;20369;-59
2022/10/19 08:31:12;;;;;;;;;;;844.90;1203.20;;;;;;5091862;28;19962;-60
2022/10/19 08:33:38;;;;;;;;;;;819.50;1203.20;;;;;;5092703;28;19919;-59
2022/10/19 08:36:05;;;;;;;;;;;845.40;1177.60;;;;;;5093563;28;20293;-60
2022/10/19 08:38:30;;;;;;;;;;;844.80;1177.60;;;;;;5093157;28;20358;-60
2022/10/19 08:40:56;;;;;;;;;;;844.90;1177.60;;;;;;5093079;28;19915;-60
2022/10/19 08:43:35;;;;;;;;;;;845.20;1177.60;;;;;;5093086;28;19953;-61
2022/10/19 08:46:13;;;;;;;;;;;819.40;1203.20;;;;;;5093060;28;19945;-60
2022/10/19 08:48:41;;;;;;;;;;;819.90;1177.60;;;;;;5093238;28;20371;-60
2022/10/19 08:51:09;;;;;;;;;;;819.20;1228.80;;;;;;5092997;28;19908;-60
2022/10/19 08:53:39;;;;;;;;;;;819.50;1203.20;;;;;;5093195;28;19916;-60
2022/10/19 08:56:13;;;;;;;;;;;819.50;1203.20;;;;;;5092907;28;19951;-60
2022/10/19 08:58:54;;;;;;;;;;;794.10;1228.80;;;;;;5092374;28;19923;-60
2022/10/19 09:01:25;;;;;;;;;;;794.50;1228.80;;;;;;5092856;28;19908;-61
2022/10/19 09:04:02;;;;;;;;;;;768.90;1254.40;;;;;;5092685;28;19908;-60
2022/10/19 09:06:33;;;;;;;;;;;768.70;1254.40;;;;;;5092720;28;19931;-60
2022/10/19 09:08:58;;;;;;;;;;;743.00;1305.60;;;;;;5092618;28;20293;-59
2022/10/19 09:11:28;;;;;;;;;;;717.00;1331.20;;;;;;5092792;28;19919;-60
2022/10/19 09:14:01;;;;;;;;;;;691.20;1408.00;;;;;;5092431;28;20294;-60
2022/10/19 09:16:27;;;;;;;;;;;665.60;1459.20;;;;;;5092610;28;19934;-60
2022/10/19 09:18:52;;;;;;;;;;;640.20;1459.20;;;;;;5092324;28;19908;-60
2022/10/19 09:21:40;;;;;;;;;;;615.30;1484.80;;;;;;5092643;28;19908;-60
2022/10/19 09:24:14;;;;;;;;;;;615.10;1510.40;;;;;;5092411;28;19909;-59
2022/10/19 09:27:00;;;;;;;;;;;614.60;1536.00;;;;;;5091965;28;20011;-59
2022/10/19 09:29:34;;;;;;;;;;;614.40;1561.60;;;;;;5092005;28;19908;-60
2022/10/19 09:32:02;;;;;;;;;;;589.50;1587.20;;;;;;5092050;28;19908;-60
2022/10/19 09:34:33;;;;;;;;;;;589.40;1587.20;;;;;;5092261;28;19990;-59
2022/10/19 09:36:59;;;;;;;;;;;589.30;1587.20;;;;;;5092146;28;19912;-59
2022/10/19 09:39:25;;;;;;;;;;;589.10;1612.80;;;;;;5092213;28;20282;-59
2022/10/19 09:42:12;;;;;;;;;;;589.00;1587.20;;;;;;5091845;28;20354;-59
2022/10/19 09:44:38;;;;;;;;;;;588.80;1612.80;;;;;;5092034;28;19908;-59
2022/10/19 09:47:15;;;;;;;;;;;564.10;1638.40;;;;;;5091772;28;19927;-59
2022/10/19 09:49:42;;;;;;;;;;;564.10;1612.80;;;;;;5091647;28;19909;-59
2022/10/19 09:52:26;;;;;;;;;;;564.00;1638.40;;;;;;5091930;28;19908;-60
2022/10/19 09:55:00;;;;;;;;;;;563.70;1638.40;;;;;;5091759;28;19908;-60
2022/10/19 09:57:25;;;;;;;;;;;563.50;1664.00;;;;;;5091803;28;19919;-61
2022/10/19 09:59:54;;;;;;;;;;;563.40;1689.60;;;;;;5091695;28;19908;-60
2022/10/19 10:02:21;;;;;;;;;;;563.40;1689.60;;;;;;5091455;28;20010;-59
2022/10/19 10:05:02;;;;;;;;;;;563.50;1715.20;;;;;;5091639;28;20381;-60
2022/10/19 10:07:32;;;;;;;;;;;563.50;1715.20;;;;;;5091608;28;19978;-60
2022/10/19 10:09:59;;;;;;;;;;;563.40;1715.20;;;;;;5091316;28;20370;-59
2022/10/19 10:12:25;;;;;;;;;;;563.40;1740.80;;;;;;5090632;28;19908;-59
2022/10/19 10:14:52;;;;;;;;;;;563.40;1766.40;;;;;;5091294;28;19933;-59
2022/10/19 10:17:20;;;;;;;;;;;563.40;1766.40;;;;;;5091543;28;20263;-59
2022/10/19 10:19:50;;;;;;;;;;;563.40;1792.00;;;;;;5091493;28;19961;-59
2022/10/19 10:22:29;;;;;;;;;;;563.50;1792.00;;;;;;5091422;28;19908;-59
2022/10/19 10:24:55;;;;;;;;;;;563.30;1792.00;;;;;;5091185;28;19908;-58
2022/10/19 10:27:28;;;;;;;;;;;563.40;1792.00;;;;;;5091074;28;19957;-60
2022/10/19 10:29:55;;;;;;;;;;;563.30;1792.00;;;;;;5090911;28;19912;-59
2022/10/19 10:32:21;;;;;;;;;;;563.20;1817.60;;;;;;5090969;28;20274;-60
2022/10/19 10:34:46;;;;;;;;;;;563.20;1817.60;;;;;;5091060;28;19912;-59
2022/10/19 10:37:18;;;;;;;;;;;563.50;1792.00;;;;;;5090834;28;19919;-59
2022/10/19 10:39:44;;;;;;;;;;;563.60;1792.00;;;;;;5091037;28;20270;-58
2022/10/19 10:42:21;;;;;;;;;;;563.60;1817.60;;;;;;5090910;28;19912;-59
2022/10/19 10:44:48;;;;;;;;;;;563.50;1817.60;;;;;;5091064;28;19954;-59
2022/10/19 10:47:15;;;;;;;;;;;563.30;1817.60;;;;;;5090584;28;19927;-59
2022/10/19 10:49:41;;;;;;;;;;;563.20;1843.20;;;;;;5090732;28;20289;-60
2022/10/19 10:52:14;;;;;;;;;;;563.30;1817.60;;;;;;5090791;28;19908;-59
2022/10/19 10:54:55;;;;;;;;;;;563.40;1868.80;;;;;;5090617;28;19957;-59
2022/10/19 10:57:22;;;;;;;;;;;563.40;1868.80;;;;;;5090488;28;20306;-59
2022/10/19 10:59:57;;;;;;;;;;;563.40;1868.80;;;;;;5090937;28;19934;-59
2022/10/19 11:02:23;;;;;;;;;;;563.30;1868.80;;;;;;5090457;28;19915;-59
2022/10/19 11:04:54;;;;;;;;;;;563.40;1868.80;;;;;;5090708;28;19912;-59
2022/10/19 11:07:22;;;;;;;;;;;563.30;1894.40;;;;;;5090341;28;19927;-59
2022/10/19 11:09:51;;;;;;;;;;;563.50;1894.40;;;;;;5090505;28;19921;-59
2022/10/19 11:12:18;;;;;;;;;;;563.60;1868.80;;;;;;5090601;28;19909;-59
2022/10/19 11:14:45;;;;;;;;;;;563.60;1868.80;;;;;;5090253;28;19943;-59
2022/10/19 11:17:15;;;;;;;;;;;563.60;1868.80;;;;;;5090380;28;19916;-60
2022/10/19 11:19:42;;;;;;;;;;;563.60;1868.80;;;;;;5090443;28;20315;-59
2022/10/19 11:22:28;;;;;;;;;;;563.80;1868.80;;;;;;5091278;28;19922;-58
2022/10/19 11:25:12;;;;;;;;;;;563.80;1868.80;;;;;;5094584;28;19918;-60
2022/10/19 11:27:50;;;;;;;;;;;564.00;1868.80;;;;;;5094599;28;19941;-61
2022/10/19 11:30:17;;;;;;;;;;;563.80;1868.80;;;;;;5094760;28;19908;-61
2022/10/19 11:33:01;;;;;;;;;;;563.80;1894.40;;;;;;5094160;28;19908;-60
2022/10/19 11:35:33;;;;;;;;;;;564.10;1868.80;;;;;;5094591;28;20376;-61
2022/10/19 11:37:58;;;;;;;;;;;588.80;1868.80;;;;;;5094435;28;19908;-60
2022/10/19 11:40:34;;;;;;;;;;;564.10;1894.40;;;;;;5094541;28;20274;-60
2022/10/19 11:43:05;;;;;;;;;;;589.00;1894.40;;;;;;5094258;28;19908;-61
2022/10/19 11:45:37;;;;;;;;;;;589.00;1868.80;;;;;;5094204;28;19954;-61
2022/10/19 11:48:02;;;;;;;;;;;564.10;1894.40;;;;;;5094024;28;19916;-61
2022/10/19 11:50:32;;;;;;;;;;;588.80;1868.80;;;;;;5094196;28;19915;-60
2022/10/19 11:53:06;;;;;;;;;;;588.80;1868.80;;;;;;5094229;28;19908;-60
2022/10/19 11:55:37;;;;;;;;;;;564.10;1894.40;;;;;;5093993;28;19908;-61
2022/10/19 11:58:04;;;;;;;;;;;588.80;1894.40;;;;;;5093907;28;19958;-61
2022/10/19 12:00:30;;;;;;;;;;;588.90;1868.80;;;;;;5093771;28;19951;-61
2022/10/19 12:03:14;;;;;;;;;;;588.90;1894.40;;;;;;5093859;28;19909;-61
2022/10/19 12:05:42;;;;;;;;;;;589.00;1894.40;;;;;;5093788;28;19928;-61
2022/10/19 12:08:08;;;;;;;;;;;589.30;1868.80;;;;;;5093855;28;20002;-60
2022/10/19 12:10:41;;;;;;;;;;;589.20;1868.80;;;;;;5093568;28;20422;-60
2022/10/19 12:13:28;;;;;;;;;;;589.00;1894.40;;;;;;5093833;28;19947;-60
2022/10/19 12:15:55;;;;;;;;;;;564.10;1945.60;;;;;;5093773;28;20350;-61
2022/10/19 12:18:42;;;;;;;;;;;564.00;1971.20;;;;;;5093437;28;19947;-60
2022/10/19 12:21:17;;;;;;;;;;;563.80;1996.80;;;;;;5093747;28;19908;-61
2022/10/19 12:23:45;;;;;;;;;;;563.70;2048.00;;;;;;5093286;28;19908;-61
2022/10/19 12:26:14;;;;;;;;;;;563.60;2048.00;;;;;;5093237;28;19916;-61
2022/10/19 12:28:42;;;;;;;;;;;563.50;2073.60;;;;;;5093348;28;20371;-61
2022/10/19 12:31:08;;;;;;;;;;;563.20;2124.80;;;;;;5093707;28;19934;-60
2022/10/19 12:33:39;;;;;;;;;;;538.50;2124.80;;;;;;5092246;28;19977;-60
2022/10/19 12:36:23;;;;;;;;;;;538.30;2176.00;;;;;;5093423;28;19912;-61
2022/10/19 12:38:59;;;;;;;;;;;538.40;2201.60;;;;;;5093169;28;19943;-61
2022/10/19 12:41:30;;;;;;;;;;;538.10;2304.00;;;;;;5093362;28;19912;-61
2022/10/19 12:44:19;;;;;;;;;;;537.80;2406.40;;;;;;5093367;28;19912;-61
2022/10/19 12:46:47;;;;;;;;;;;537.60;2406.40;;;;;;5093219;28;19924;-61
2022/10/19 12:49:25;;;;;;;;;;;512.90;2380.80;;;;;;5092978;28;20320;-61
2022/10/19 12:51:51;;;;;;;;;;;512.90;2380.80;;;;;;5092953;28;19908;-60
2022/10/19 12:54:20;;;;;;;;;;;512.80;2380.80;;;;;;5090507;28;19950;-60
2022/10/19 12:56:48;;;;;;;;;;;512.80;2380.80;;;;;;5091531;28;19908;-61
2022/10/19 12:59:23;;;;;;;;;;;512.60;2380.80;;;;;;5091358;28;19981;-60
2022/10/19 13:01:49;;;;;;;;;;;512.40;2380.80;;;;;;5091372;28;19919;-61
2022/10/19 13:04:15;;;;;;;;;;;512.40;2380.80;;;;;;5091249;28;20325;-60
2022/10/19 13:06:48;;;;;;;;;;;512.30;2380.80;;;;;;5090821;28;19920;-61
2022/10/19 13:09:25;;;;;;;;;;;512.20;2380.80;;;;;;5091231;28;19970;-60
2022/10/19 13:12:22;;;;;;;;;;;512.20;2380.80;;;;;;5090853;28;20324;-61
2022/10/19 13:14:52;;;;;;;;;;;512.20;2380.80;;;;;;5086331;28;19908;-61
2022/10/19 13:17:33;;;;;;;;;;;512.00;2380.80;;;;;;5091114;28;19908;-60
2022/10/19 13:20:13;;;;;;;;;;;487.30;2380.80;;;;;;5090744;28;19935;-60
2022/10/19 13:22:40;;;;;;;;;;;487.30;2380.80;;;;;;5090748;28;19912;-61
2022/10/19 13:25:22;;;;;;;;;;;487.30;2380.80;;;;;;5090871;28;19998;-61
2022/10/19 13:27:51;;;;;;;;;;;487.30;2380.80;;;;;;5090917;28;19998;-60
2022/10/19 13:30:38;;;;;;;;;;;487.30;2380.80;;;;;;5090878;28;20277;-60
2022/10/19 13:33:24;;;;;;;;;;;487.20;2380.80;;;;;;5090125;28;19916;-61
2022/10/19 13:35:59;;;;;;;;;;;487.20;2380.80;;;;;;5090644;28;20442;-61
2022/10/19 13:38:33;;;;;;;;;;;487.20;2380.80;;;;;;5090950;28;19912;-60
2022/10/19 13:41:08;;;;;;;;;;;487.20;2380.80;;;;;;5090298;28;19908;-61
2022/10/19 13:43:37;;;;;;;;;;;487.30;2380.80;;;;;;5090464;28;20318;-61
2022/10/19 13:46:03;;;;;;;;;;;487.30;2380.80;;;;;;5089482;28;19920;-60
2022/10/19 13:48:47;;;;;;;;;;;512.10;2380.80;;;;;;5090781;28;20394;-61
2022/10/19 13:51:45;;;;;;;;;;;512.10;2380.80;;;;;;5090287;28;19973;-61